Time;durP1;ratioP1;P1;durP2;ratioP2;P2;SDS_P1;SDS_P2;PMS_P1;PMS_P2;Temp;Humidity;BMP_temperature;BMP_pressure;BME280_temperature;BME280_humidity;BME280_pressure;Samples;Min_cycle;Max_cycle;Signal;HPM_P1;HPM_P2
2022/03/20 00:00:01;;;;;;;52.23;21.73;;;;;;;;;;6293851;22;20702;-87
2022/03/20 00:03:09;;;;;;;55.13;22.07;;;;;;;;;;6296003;22;20169;-88
2022/03/20 00:06:14;;;;;;;51.43;21.93;;;;;;;;;;6295589;22;20299;-89
2022/03/20 00:09:23;;;;;;;51.03;21.37;;;;;;;;;;6294528;22;20219;-88
2022/03/20 00:12:28;;;;;;;57.13;22.33;;;;;;;;;;6297163;22;20624;-88
2022/03/20 00:15:33;;;;;;;50.80;21.23;;;;;;;;;;6311873;22;20212;-88
2022/03/20 00:18:40;;;;;;;50.80;21.07;;;;;;;;;;6294946;22;20169;-88
2022/03/20 00:21:44;;;;;;;50.07;21.47;;;;;;;;;;6295073;22;20193;-86
2022/03/20 00:24:49;;;;;;;50.57;21.97;;;;;;;;;;6294358;22;20173;-88
2022/03/20 00:27:54;;;;;;;53.50;22.10;;;;;;;;;;6295308;22;20169;-87
2022/03/20 00:30:59;;;;;;;58.23;22.67;;;;;;;;;;6294041;22;20184;-89
2022/03/20 00:34:07;;;;;;;53.67;21.80;;;;;;;;;;6294948;22;20176;-86
2022/03/20 00:37:12;;;;;;;56.10;21.93;;;;;;;;;;6293358;22;20229;-89
2022/03/20 00:40:17;;;;;;;50.97;21.97;;;;;;;;;;6293213;22;20193;-88
2022/03/20 00:43:22;;;;;;;47.93;20.77;;;;;;;;;;6293437;22;20192;-89
2022/03/20 00:46:28;;;;;;;46.13;20.83;;;;;;;;;;6294554;22;20543;-88
2022/03/20 00:49:35;;;;;;;50.60;21.50;;;;;;;;;;6296831;22;20173;-86
2022/03/20 00:52:40;;;;;;;53.20;19.63;;;;;;;;;;6299145;22;20184;-89
2022/03/20 00:55:45;;;;;;;55.53;20.67;;;;;;;;;;6297127;22;20165;-87
2022/03/20 00:58:51;;;;;;;53.43;21.57;;;;;;;;;;6296680;22;20169;-88
2022/03/20 01:01:55;;;;;;;44.23;20.27;;;;;;;;;;6296451;22;20204;-88
2022/03/20 01:05:02;;;;;;;49.57;20.13;;;;;;;;;;6296862;22;20616;-88
2022/03/20 01:08:07;;;;;;;53.50;21.60;;;;;;;;;;6296614;22;20612;-85
2022/03/20 01:11:12;;;;;;;54.97;21.40;;;;;;;;;;6296372;22;20165;-88
2022/03/20 01:14:17;;;;;;;53.87;20.77;;;;;;;;;;6296722;22;20173;-87
2022/03/20 01:17:23;;;;;;;52.87;20.07;;;;;;;;;;6296814;22;20176;-89
2022/03/20 01:20:29;;;;;;;55.07;20.50;;;;;;;;;;6296058;22;20605;-86
2022/03/20 01:23:34;;;;;;;47.43;20.20;;;;;;;;;;6297912;22;20165;-87
2022/03/20 01:26:39;;;;;;;48.37;18.50;;;;;;;;;;6313866;22;20169;-87
2022/03/20 01:29:45;;;;;;;49.23;19.87;;;;;;;;;;6295586;22;20581;-86
2022/03/20 01:32:50;;;;;;;47.70;19.87;;;;;;;;;;6296338;22;20228;-87
2022/03/20 01:35:56;;;;;;;47.83;20.67;;;;;;;;;;6295469;22;20192;-89
2022/03/20 01:39:01;;;;;;;53.93;21.77;;;;;;;;;;6295127;22;20587;-87
2022/03/20 01:42:06;;;;;;;47.73;20.80;;;;;;;;;;6313365;22;20168;-88
2022/03/20 01:45:15;;;;;;;49.53;20.80;;;;;;;;;;6294540;22;20168;-89
2022/03/20 01:48:20;;;;;;;44.73;20.00;;;;;;;;;;6313505;22;20161;-88
2022/03/20 01:54:47;;;;;;;42.07;18.60;;;;;;;;;;6314465;22;20161;-88
2022/03/20 01:57:54;;;;;;;46.67;19.90;;;;;;;;;;6299067;22;20153;-88
2022/03/20 02:00:59;;;;;;;44.27;18.87;;;;;;;;;;6297864;22;20255;-88
2022/03/20 02:04:04;;;;;;;45.17;19.20;;;;;;;;;;6318488;22;20161;-87
2022/03/20 02:07:11;;;;;;;46.63;19.13;;;;;;;;;;6300142;22;20254;-88
2022/03/20 02:10:16;;;;;;;41.03;18.73;;;;;;;;;;6299987;22;20715;-87
2022/03/20 02:13:22;;;;;;;39.60;18.17;;;;;;;;;;6317188;22;20239;-87
2022/03/20 02:16:27;;;;;;;44.43;18.23;;;;;;;;;;6299904;22;20168;-89
2022/03/20 02:19:34;;;;;;;41.93;17.40;;;;;;;;;;6299631;22;20169;-87
2022/03/20 02:22:41;;;;;;;40.70;18.43;;;;;;;;;;6299222;22;20208;-87
2022/03/20 02:25:50;;;;;;;46.87;18.40;;;;;;;;;;6298571;22;20161;-87
2022/03/20 02:28:55;;;;;;;43.80;17.77;;;;;;;;;;6296488;22;20170;-86
2022/03/20 02:32:01;;;;;;;36.93;16.43;;;;;;;;;;6299510;22;20196;-86
2022/03/20 02:35:07;;;;;;;44.27;17.27;;;;;;;;;;6298722;22;20169;-87
2022/03/20 02:38:15;;;;;;;38.50;16.23;;;;;;;;;;6299529;22;20203;-85
2022/03/20 02:41:20;;;;;;;46.80;17.70;;;;;;;;;;6298924;22;20235;-86
2022/03/20 02:44:46;;;;;;;37.70;17.00;;;;;;;;;;6299767;22;20174;-85
2022/03/20 02:47:51;;;;;;;39.93;16.50;;;;;;;;;;6317925;22;20154;-88
2022/03/20 02:50:57;;;;;;;39.77;15.60;;;;;;;;;;6299176;22;20168;-87
2022/03/20 02:54:03;;;;;;;36.80;14.80;;;;;;;;;;6298519;22;20177;-87
2022/03/20 02:57:08;;;;;;;40.77;16.53;;;;;;;;;;6298797;22;20481;-87
2022/03/20 03:00:13;;;;;;;39.33;16.67;;;;;;;;;;6297633;22;20165;-87
2022/03/20 03:03:19;;;;;;;36.57;15.27;;;;;;;;;;6299234;22;20154;-87
2022/03/20 03:06:24;;;;;;;35.93;15.20;;;;;;;;;;6298008;22;20595;-87
2022/03/20 03:12:53;;;;;;;39.27;15.37;;;;;;;;;;6299292;22;20166;-88
2022/03/20 03:15:59;;;;;;;36.13;15.17;;;;;;;;;;6298339;22;20161;-87
2022/03/20 03:19:04;;;;;;;36.40;15.73;;;;;;;;;;6297044;22;20568;-88
2022/03/20 03:22:08;;;;;;;42.90;15.73;;;;;;;;;;6315617;22;20192;-88
2022/03/20 03:25:15;;;;;;;39.60;16.03;;;;;;;;;;6297784;22;20188;-87
2022/03/20 03:28:21;;;;;;;37.20;15.33;;;;;;;;;;6318506;22;20161;-88
2022/03/20 03:31:25;;;;;;;39.63;15.90;;;;;;;;;;6299859;22;20726;-88
2022/03/20 03:37:53;;;;;;;35.30;15.17;;;;;;;;;;6297901;22;20238;-87
2022/03/20 03:41:00;;;;;;;34.90;14.27;;;;;;;;;;6299380;22;20235;-88
2022/03/20 03:44:06;;;;;;;35.90;15.23;;;;;;;;;;6300248;22;20227;-89
2022/03/20 03:47:11;;;;;;;34.73;15.10;;;;;;;;;;6318791;22;20501;-87
2022/03/20 03:50:16;;;;;;;37.03;15.47;;;;;;;;;;6298509;22;20160;-88
2022/03/20 03:53:22;;;;;;;38.43;16.00;;;;;;;;;;6318135;22;20148;-88
2022/03/20 03:56:28;;;;;;;36.70;14.87;;;;;;;;;;6300383;22;20149;-88
2022/03/20 03:59:34;;;;;;;33.77;15.23;;;;;;;;;;6299359;22;20500;-87
2022/03/20 04:02:39;;;;;;;37.70;15.10;;;;;;;;;;6299956;22;20424;-87
2022/03/20 04:05:45;;;;;;;37.70;15.07;;;;;;;;;;6298280;22;20209;-88
2022/03/20 04:08:50;;;;;;;34.27;15.17;;;;;;;;;;6298761;22;20186;-88
2022/03/20 04:11:56;;;;;;;33.00;14.17;;;;;;;;;;6298708;22;20177;-87
2022/03/20 04:15:03;;;;;;;30.13;13.17;;;;;;;;;;6298931;22;20165;-86
2022/03/20 04:18:08;;;;;;;34.13;14.30;;;;;;;;;;6299618;22;20608;-87
2022/03/20 04:21:12;;;;;;;32.53;13.50;;;;;;;;;;6299506;22;20192;-87
2022/03/20 04:24:18;;;;;;;34.60;14.37;;;;;;;;;;6301559;22;20161;-87
2022/03/20 04:27:25;;;;;;;38.50;14.50;;;;;;;;;;6303275;22;20229;-87
2022/03/20 04:30:34;;;;;;;29.97;13.43;;;;;;;;;;6302458;22;20169;-87
2022/03/20 04:33:39;;;;;;;31.50;13.10;;;;;;;;;;6304367;22;20172;-86
2022/03/20 04:36:45;;;;;;;32.37;14.00;;;;;;;;;;6321422;22;20607;-89
2022/03/20 04:39:50;;;;;;;31.30;12.83;;;;;;;;;;6303334;22;20162;-88
2022/03/20 04:42:57;;;;;;;29.97;12.33;;;;;;;;;;6304108;22;20220;-88
2022/03/20 04:46:02;;;;;;;31.43;13.27;;;;;;;;;;6301498;22;20585;-87
2022/03/20 04:59:17;;;;;;;26.43;12.83;;;;;;;;;;6322547;22;20190;-87
2022/03/20 05:02:22;;;;;;;30.63;13.67;;;;;;;;;;6303667;22;20191;-86
2022/03/20 05:05:28;;;;;;;32.23;13.20;;;;;;;;;;6303363;22;20185;-87
2022/03/20 05:08:35;;;;;;;32.20;13.37;;;;;;;;;;6304679;22;20599;-88
2022/03/20 05:15:05;;;;;;;28.10;12.67;;;;;;;;;;6304499;22;20204;-87
2022/03/20 05:18:12;;;;;;;36.73;14.00;;;;;;;;;;6304563;22;20176;-88
2022/03/20 05:21:18;;;;;;;32.07;12.63;;;;;;;;;;6302384;22;20235;-88
2022/03/20 05:24:23;;;;;;;34.40;13.13;;;;;;;;;;6302854;22;20217;-87
2022/03/20 05:27:28;;;;;;;29.93;13.27;;;;;;;;;;6302596;22;20277;-88
2022/03/20 05:30:34;;;;;;;32.43;13.53;;;;;;;;;;6301729;22;20161;-88
2022/03/20 05:33:39;;;;;;;29.33;13.07;;;;;;;;;;6302343;22;20184;-86
2022/03/20 05:36:44;;;;;;;32.80;13.80;;;;;;;;;;6304759;22;20217;-87
2022/03/20 05:39:49;;;;;;;31.50;13.07;;;;;;;;;;6306638;22;20166;-88
2022/03/20 05:42:54;;;;;;;28.07;12.63;;;;;;;;;;6303758;22;20255;-87
2022/03/20 05:46:01;;;;;;;27.20;12.17;;;;;;;;;;6322113;22;20188;-86
2022/03/20 05:49:06;;;;;;;28.53;12.80;;;;;;;;;;6324768;22;20255;-87
2022/03/20 05:52:13;;;;;;;29.13;12.30;;;;;;;;;;6321938;22;20173;-85
2022/03/20 05:55:18;;;;;;;27.13;12.53;;;;;;;;;;6304353;22;20176;-86
2022/03/20 05:58:22;;;;;;;28.27;12.00;;;;;;;;;;6303518;22;20208;-87
2022/03/20 06:01:29;;;;;;;33.80;13.03;;;;;;;;;;6301993;22;20205;-86
2022/03/20 06:04:34;;;;;;;27.00;11.63;;;;;;;;;;6321698;22;20161;-87
2022/03/20 06:07:43;;;;;;;30.43;12.83;;;;;;;;;;6301796;22;20165;-87
2022/03/20 06:10:48;;;;;;;26.70;11.90;;;;;;;;;;6303601;22;20166;-85
2022/03/20 06:13:55;;;;;;;25.83;11.43;;;;;;;;;;6319736;22;20169;-88
2022/03/20 06:17:01;;;;;;;26.97;12.27;;;;;;;;;;6318913;22;20216;-87
2022/03/20 06:20:08;;;;;;;26.17;11.77;;;;;;;;;;6319662;22;20200;-88
2022/03/20 06:23:14;;;;;;;28.60;12.00;;;;;;;;;;6301519;22;20176;-87
2022/03/20 06:26:20;;;;;;;30.50;11.67;;;;;;;;;;6300950;22;20215;-87
2022/03/20 06:29:25;;;;;;;26.93;11.27;;;;;;;;;;6301685;22;20166;-87
2022/03/20 06:32:31;;;;;;;28.23;12.63;;;;;;;;;;6299275;22;20169;-87
2022/03/20 06:35:36;;;;;;;27.53;11.63;;;;;;;;;;6297098;22;20235;-88
2022/03/20 06:38:41;;;;;;;26.73;12.07;;;;;;;;;;6298779;22;20211;-88
2022/03/20 06:41:46;;;;;;;19.77;9.60;;;;;;;;;;6300215;22;20383;-87
2022/03/20 06:44:51;;;;;;;28.70;12.00;;;;;;;;;;6318613;22;20247;-86
2022/03/20 06:47:57;;;;;;;23.63;11.20;;;;;;;;;;6300878;22;20169;-88
2022/03/20 06:51:04;;;;;;;25.73;11.00;;;;;;;;;;6299025;22;20492;-87
2022/03/20 06:54:09;;;;;;;25.23;11.20;;;;;;;;;;6298294;22;20156;-88
2022/03/20 06:57:14;;;;;;;26.73;11.00;;;;;;;;;;6301865;22;20169;-88
2022/03/20 07:00:19;;;;;;;27.23;11.53;;;;;;;;;;6302165;22;20161;-87
2022/03/20 07:03:35;;;;;;;25.70;11.00;;;;;;;;;;6319181;22;20275;-86
2022/03/20 07:06:40;;;;;;;27.57;11.07;;;;;;;;;;6300070;22;20154;-85
2022/03/20 07:09:45;;;;;;;25.93;11.73;;;;;;;;;;6300132;22;20283;-87
2022/03/20 07:12:50;;;;;;;29.00;11.13;;;;;;;;;;6300018;22;20218;-86
2022/03/20 07:16:00;;;;;;;24.33;11.87;;;;;;;;;;6318416;22;20233;-87
2022/03/20 07:19:08;;;;;;;17.13;6.77;;;;;;;;;;6298558;22;20493;-87
2022/03/20 07:22:14;;;;;;;25.50;12.07;;;;;;;;;;6317112;22;20223;-87
2022/03/20 07:32:06;;;;;;;27.67;11.50;;;;;;;;;;6299181;22;20188;-87
2022/03/20 07:35:12;;;;;;;29.30;11.37;;;;;;;;;;6317096;22;20581;-87
2022/03/20 07:38:17;;;;;;;28.47;11.57;;;;;;;;;;6298732;22;20188;-88
2022/03/20 07:41:23;;;;;;;21.40;10.80;;;;;;;;;;6298674;22;20156;-86
2022/03/20 07:44:31;;;;;;;24.73;11.47;;;;;;;;;;6298341;22;20251;-87
2022/03/20 07:47:37;;;;;;;19.97;8.90;;;;;;;;;;6298766;22;20184;-87
2022/03/20 07:50:43;;;;;;;26.07;11.60;;;;;;;;;;6299305;22;20690;-88
2022/03/20 07:53:50;;;;;;;31.67;11.33;;;;;;;;;;6319855;22;20169;-88
2022/03/20 07:56:56;;;;;;;24.33;11.27;;;;;;;;;;6299779;22;20188;-87
2022/03/20 08:00:02;;;;;;;22.70;9.60;;;;;;;;;;6300171;22;20164;-87
2022/03/20 08:03:17;;;;;;;23.03;10.50;;;;;;;;;;6319370;22;20243;-88
2022/03/20 08:06:23;;;;;;;25.47;11.20;;;;;;;;;;6300730;22;20161;-88
2022/03/20 08:09:28;;;;;;;24.70;10.83;;;;;;;;;;6318284;22;20172;-88
2022/03/20 08:12:33;;;;;;;24.00;10.63;;;;;;;;;;6298910;22;20183;-88
2022/03/20 08:15:39;;;;;;;26.45;10.45;;;;;;;;;;6299419;22;20161;-86
2022/03/20 08:18:45;;;;;;;24.73;10.48;;;;;;;;;;6300797;22;20161;-88
2022/03/20 08:21:51;;;;;;;22.77;9.57;;;;;;;;;;6300213;22;20483;-87
2022/03/20 08:24:56;;;;;;;21.80;10.07;;;;;;;;;;6317762;22;20169;-87
2022/03/20 08:28:02;;;;;;;18.02;6.55;;;;;;;;;;6299934;22;20160;-89
2022/03/20 08:31:07;;;;;;;21.88;9.93;;;;;;;;;;6317763;22;20161;-86
2022/03/20 08:34:13;;;;;;;25.95;9.98;;;;;;;;;;6320614;22;20196;-87
2022/03/20 08:37:20;;;;;;;24.38;10.80;;;;;;;;;;6319879;22;20169;-88
2022/03/20 08:40:25;;;;;;;22.50;9.57;;;;;;;;;;6301126;22;20169;-88
2022/03/20 08:43:30;;;;;;;21.75;9.27;;;;;;;;;;6316289;22;20192;-87
2022/03/20 08:46:35;;;;;;;24.23;9.90;;;;;;;;;;6319189;22;20216;-87
2022/03/20 08:49:41;;;;;;;21.40;10.38;;;;;;;;;;6301867;22;20198;-89
2022/03/20 08:52:48;;;;;;;24.45;10.77;;;;;;;;;;6303432;22;20169;-86
2022/03/20 08:55:53;;;;;;;21.48;10.68;;;;;;;;;;6318698;22;20164;-87
2022/03/20 08:58:58;;;;;;;22.27;10.25;;;;;;;;;;6301732;22;20208;-88
2022/03/20 09:02:04;;;;;;;24.35;9.82;;;;;;;;;;6318597;22;20184;-87
2022/03/20 09:05:11;;;;;;;21.88;10.02;;;;;;;;;;6299714;22;20169;-86
2022/03/20 09:08:18;;;;;;;20.27;9.90;;;;;;;;;;6301992;22;20188;-88
2022/03/20 09:11:23;;;;;;;19.85;10.32;;;;;;;;;;6303176;22;20505;-89
2022/03/20 09:14:29;;;;;;;19.55;9.88;;;;;;;;;;6304876;22;20168;-90
2022/03/20 09:20:57;;;;;;;21.45;9.60;;;;;;;;;;6320363;22;20180;-88
2022/03/20 09:24:04;;;;;;;23.83;10.65;;;;;;;;;;6321641;22;20215;-89
2022/03/20 09:27:09;;;;;;;19.85;9.55;;;;;;;;;;6302195;22;20661;-88
2022/03/20 09:30:15;;;;;;;20.98;10.43;;;;;;;;;;6319567;22;20164;-88
2022/03/20 09:33:21;;;;;;;18.92;10.38;;;;;;;;;;6301862;22;20246;-88
2022/03/20 09:36:27;;;;;;;19.58;10.27;;;;;;;;;;6317491;22;20216;-88
2022/03/20 09:39:34;;;;;;;20.80;10.35;;;;;;;;;;6300002;22;20149;-89
2022/03/20 09:42:40;;;;;;;18.40;10.60;;;;;;;;;;6300153;22;20208;-88
2022/03/20 09:45:45;;;;;;;19.00;9.73;;;;;;;;;;6301020;22;20165;-89
2022/03/20 09:48:51;;;;;;;17.88;10.43;;;;;;;;;;6319646;22;20173;-90
2022/03/20 09:51:56;;;;;;;15.45;9.05;;;;;;;;;;6303156;22;20168;-89
2022/03/20 09:55:03;;;;;;;20.02;9.80;;;;;;;;;;6320708;22;20493;-88
2022/03/20 09:58:08;;;;;;;17.50;9.48;;;;;;;;;;6319567;22;20276;-88
2022/03/20 10:01:13;;;;;;;17.27;9.60;;;;;;;;;;6321915;22;20199;-90
2022/03/20 10:04:19;;;;;;;17.67;10.45;;;;;;;;;;6323553;22;20209;-89
2022/03/20 10:07:25;;;;;;;18.50;10.13;;;;;;;;;;6305676;22;20166;-88
2022/03/20 10:10:32;;;;;;;18.70;10.43;;;;;;;;;;6305100;22;20237;-88
2022/03/20 10:13:37;;;;;;;15.88;9.30;;;;;;;;;;6303691;22;20165;-90
2022/03/20 10:16:44;;;;;;;20.80;10.23;;;;;;;;;;6310051;22;20188;-89
2022/03/20 10:19:50;;;;;;;16.55;9.60;;;;;;;;;;6302765;22;20176;-89
2022/03/20 10:22:54;;;;;;;20.05;9.98;;;;;;;;;;6321538;22;20176;-89
2022/03/20 10:26:01;;;;;;;16.15;9.57;;;;;;;;;;6320463;22;20256;-89
2022/03/20 10:29:14;;;;;;;16.52;10.10;;;;;;;;;;6322058;22;20165;-87
2022/03/20 10:32:19;;;;;;;17.05;9.25;;;;;;;;;;6302149;22;20181;-88
2022/03/20 10:35:26;;;;;;;15.68;9.68;;;;;;;;;;6321751;22;20220;-89
2022/03/20 10:38:36;;;;;;;23.08;12.00;;;;;;;;;;6321257;22;20609;-87
2022/03/20 10:41:45;;;;;;;18.88;10.35;;;;;;;;;;6322149;22;20233;-88
2022/03/20 10:45:04;;;;;;;20.13;9.45;;;;;;;;;;6305087;22;20168;-90
2022/03/20 10:48:13;;;;;;;15.70;9.50;;;;;;;;;;6304477;22;20165;-90
2022/03/20 10:51:27;;;;;;;18.30;9.00;;;;;;;;;;6323684;22;20185;-88
2022/03/20 10:54:40;;;;;;;16.23;9.35;;;;;;;;;;6323013;22;20239;-89
2022/03/20 10:57:47;;;;;;;13.85;8.55;;;;;;;;;;6302481;22;20439;-90
2022/03/20 11:00:52;;;;;;;15.23;9.15;;;;;;;;;;6322336;22;20144;-90
2022/03/20 11:03:58;;;;;;;14.77;8.90;;;;;;;;;;6302528;22;20165;-90
2022/03/20 11:07:07;;;;;;;18.10;9.65;;;;;;;;;;6321898;22;20152;-89
2022/03/20 11:10:13;;;;;;;13.88;8.85;;;;;;;;;;6323610;22;20169;-90
2022/03/20 11:13:21;;;;;;;17.27;9.05;;;;;;;;;;6305417;22;20200;-89
2022/03/20 11:16:28;;;;;;;18.10;9.50;;;;;;;;;;6304345;22;20161;-90
2022/03/20 11:19:34;;;;;;;14.18;8.43;;;;;;;;;;6320979;22;20177;-88
2022/03/20 11:22:44;;;;;;;15.63;8.82;;;;;;;;;;6302206;22;20173;-90
2022/03/20 11:25:49;;;;;;;16.25;8.95;;;;;;;;;;6319878;22;20165;-89
2022/03/20 11:28:59;;;;;;;17.10;9.18;;;;;;;;;;6318539;22;20203;-89
2022/03/20 11:32:05;;;;;;;13.77;8.38;;;;;;;;;;6319157;22;20204;-88
2022/03/20 11:35:11;;;;;;;16.33;8.95;;;;;;;;;;6318856;22;20169;-87
2022/03/20 11:38:17;;;;;;;19.33;11.13;;;;;;;;;;6302863;22;20168;-89
2022/03/20 11:41:23;;;;;;;15.50;8.70;;;;;;;;;;6305700;22;20152;-88
2022/03/20 11:44:29;;;;;;;16.67;9.25;;;;;;;;;;6302855;22;20224;-88
2022/03/20 11:47:34;;;;;;;12.52;7.93;;;;;;;;;;6300488;22;20188;-88
2022/03/20 11:50:42;;;;;;;18.20;8.60;;;;;;;;;;6303401;22;20169;-91
2022/03/20 11:54:06;;;;;;;14.30;8.00;;;;;;;;;;6319308;22;20197;-88
2022/03/20 11:57:26;;;;;;;16.48;8.93;;;;;;;;;;6302130;22;20165;-89
2022/03/20 12:00:33;;;;;;;16.40;8.85;;;;;;;;;;6322784;22;20146;-89
2022/03/20 12:03:52;;;;;;;17.48;9.02;;;;;;;;;;6302773;22;20147;-89
2022/03/20 12:07:08;;;;;;;16.67;8.68;;;;;;;;;;6319376;22;20169;-88
2022/03/20 12:10:20;;;;;;;18.23;9.13;;;;;;;;;;6301986;22;20321;-89
2022/03/20 12:13:27;;;;;;;15.18;8.13;;;;;;;;;;6302111;22;20200;-87
2022/03/20 12:16:50;;;;;;;16.45;7.80;;;;;;;;;;6300962;22;20288;-88
2022/03/20 12:19:58;;;;;;;17.08;8.25;;;;;;;;;;6318706;22;20579;-87
2022/03/20 12:23:18;;;;;;;17.40;8.90;;;;;;;;;;6320912;22;20165;-89
2022/03/20 12:26:43;;;;;;;15.10;8.45;;;;;;;;;;6318577;22;20166;-88
2022/03/20 12:29:49;;;;;;;18.50;8.70;;;;;;;;;;6303157;22;20243;-90
2022/03/20 12:32:57;;;;;;;15.30;8.32;;;;;;;;;;6319196;22;20165;-86
2022/03/20 12:36:04;;;;;;;16.63;8.65;;;;;;;;;;6302041;22;20165;-89
2022/03/20 12:39:12;;;;;;;15.30;7.75;;;;;;;;;;6320529;22;20504;-89
2022/03/20 12:42:18;;;;;;;15.57;8.02;;;;;;;;;;6318419;22;20217;-88
2022/03/20 12:45:23;;;;;;;18.50;8.18;;;;;;;;;;6302832;22;20165;-89
2022/03/20 12:48:32;;;;;;;14.38;7.45;;;;;;;;;;6324492;22;20176;-90
2022/03/20 12:51:42;;;;;;;14.98;8.10;;;;;;;;;;6325494;22;20165;-88
2022/03/20 12:54:55;;;;;;;14.25;8.00;;;;;;;;;;6325756;22;20244;-89
2022/03/20 12:58:00;;;;;;;16.35;7.88;;;;;;;;;;6324240;22;20153;-90
2022/03/20 13:01:10;;;;;;;13.77;8.38;;;;;;;;;;6326677;22;20165;-88
2022/03/20 13:04:16;;;;;;;16.40;8.68;;;;;;;;;;6327912;22;20168;-88
2022/03/20 13:07:28;;;;;;;15.85;8.35;;;;;;;;;;6326001;22;20161;-89
2022/03/20 13:10:36;;;;;;;15.40;8.57;;;;;;;;;;6325081;22;20165;-89
2022/03/20 13:13:46;;;;;;;13.15;7.70;;;;;;;;;;6309254;22;20253;-88
2022/03/20 13:16:51;;;;;;;13.88;7.75;;;;;;;;;;6325090;22;20486;-88
2022/03/20 13:19:58;;;;;;;13.02;6.95;;;;;;;;;;6310271;22;20181;-87
2022/03/20 13:23:08;;;;;;;11.52;7.13;;;;;;;;;;6325585;22;20171;-88
2022/03/20 13:26:18;;;;;;;11.50;7.45;;;;;;;;;;6325329;22;20165;-90
2022/03/20 13:29:24;;;;;;;12.63;7.00;;;;;;;;;;6325182;22;20165;-89
2022/03/20 13:32:29;;;;;;;12.75;7.60;;;;;;;;;;6326020;22;20166;-87
2022/03/20 13:35:35;;;;;;;13.07;7.25;;;;;;;;;;6324739;22;20196;-89
2022/03/20 13:38:44;;;;;;;13.68;7.63;;;;;;;;;;6324598;22;20161;-89
2022/03/20 13:41:50;;;;;;;12.88;6.65;;;;;;;;;;6309418;22;20238;-89
2022/03/20 13:44:56;;;;;;;14.55;7.00;;;;;;;;;;6305678;22;20216;-89
2022/03/20 13:48:03;;;;;;;12.57;7.22;;;;;;;;;;6307118;22;20247;-89
2022/03/20 13:51:09;;;;;;;13.63;6.22;;;;;;;;;;6305447;22;20169;-88
2022/03/20 13:54:18;;;;;;;12.38;7.15;;;;;;;;;;6323543;22;20216;-86
2022/03/20 13:57:24;;;;;;;14.85;7.50;;;;;;;;;;6307616;22;20165;-87
2022/03/20 14:00:32;;;;;;;13.50;6.90;;;;;;;;;;6305276;22;20236;-88
2022/03/20 14:03:40;;;;;;;14.30;6.93;;;;;;;;;;6323483;22;20165;-88
2022/03/20 14:06:46;;;;;;;16.23;7.18;;;;;;;;;;6320023;22;20161;-90
2022/03/20 14:09:53;;;;;;;11.43;6.45;;;;;;;;;;6318906;22;20173;-89
2022/03/20 14:13:13;;;;;;;10.90;6.88;;;;;;;;;;6304046;22;20191;-90
2022/03/20 14:16:19;;;;;;;12.32;6.30;;;;;;;;;;6320412;22;20173;-89
2022/03/20 14:19:23;;;;;;;15.35;8.30;;;;;;;;;;6319275;22;20177;-90
2022/03/20 14:22:42;;;;;;;15.30;7.38;;;;;;;;;;6302824;22;20173;-89
2022/03/20 14:25:51;;;;;;;14.73;6.30;;;;;;;;;;6300520;22;20161;-88
2022/03/20 14:29:12;;;;;;;12.48;6.30;;;;;;;;;;6301788;22;20276;-88
2022/03/20 14:39:28;;;;;;;11.27;5.95;;;;;;;;;;6318626;22;20324;-88
2022/03/20 14:42:36;;;;;;;12.10;6.22;;;;;;;;;;6319065;22;20157;-89
2022/03/20 14:45:41;;;;;;;12.68;6.80;;;;;;;;;;6301637;22;20185;-89
2022/03/20 14:48:47;;;;;;;13.10;7.07;;;;;;;;;;6319574;22;20164;-88
2022/03/20 14:51:53;;;;;;;11.90;6.07;;;;;;;;;;6319760;22;20279;-88
2022/03/20 14:54:58;;;;;;;14.05;6.68;;;;;;;;;;6302623;22;20519;-88
2022/03/20 14:58:06;;;;;;;14.02;6.55;;;;;;;;;;6302924;22;20185;-87
2022/03/20 15:01:12;;;;;;;14.73;7.45;;;;;;;;;;6320522;22;20231;-87
2022/03/20 15:04:19;;;;;;;12.10;6.78;;;;;;;;;;6320126;22;20208;-87
2022/03/20 15:07:25;;;;;;;14.95;7.25;;;;;;;;;;6300582;22;20154;-89
2022/03/20 15:13:55;;;;;;;15.07;6.30;;;;;;;;;;6298766;22;20193;-87
2022/03/20 15:17:00;;;;;;;12.77;6.88;;;;;;;;;;6319161;22;20164;-88
2022/03/20 15:20:06;;;;;;;13.85;7.57;;;;;;;;;;6318550;22;20616;-92
2022/03/20 15:23:12;;;;;;;12.90;6.38;;;;;;;;;;6318716;22;20164;-89
2022/03/20 15:26:17;;;;;;;14.07;6.45;;;;;;;;;;6317333;22;20181;-87
2022/03/20 15:29:25;;;;;;;13.70;7.03;;;;;;;;;;6299746;22;20168;-89
2022/03/20 15:32:30;;;;;;;12.27;6.95;;;;;;;;;;6318888;22;20168;-87
2022/03/20 15:35:35;;;;;;;18.27;7.00;;;;;;;;;;6301142;22;20188;-87
2022/03/20 15:38:40;;;;;;;14.38;6.72;;;;;;;;;;6318751;22;20169;-87
2022/03/20 15:41:46;;;;;;;14.10;6.32;;;;;;;;;;6318243;22;20532;-88
2022/03/20 15:44:53;;;;;;;13.60;6.53;;;;;;;;;;6318438;22;20498;-87
2022/03/20 15:47:59;;;;;;;17.45;7.03;;;;;;;;;;6298553;22;20226;-87
2022/03/20 15:51:03;;;;;;;15.20;6.63;;;;;;;;;;6318363;22;20161;-88
2022/03/20 15:54:09;;;;;;;13.00;6.35;;;;;;;;;;6300132;22;20189;-87
2022/03/20 15:57:13;;;;;;;12.77;6.32;;;;;;;;;;6300012;22;20149;-89
2022/03/20 16:00:20;;;;;;;10.70;5.65;;;;;;;;;;6299695;22;20149;-88
2022/03/20 16:03:28;;;;;;;14.05;6.25;;;;;;;;;;6317079;22;20203;-89
2022/03/20 16:06:33;;;;;;;11.85;6.00;;;;;;;;;;6317990;22;20264;-88
2022/03/20 16:09:38;;;;;;;14.10;6.78;;;;;;;;;;6317001;22;20165;-89
2022/03/20 16:12:43;;;;;;;16.38;6.82;;;;;;;;;;6317142;22;20169;-87
2022/03/20 16:15:50;;;;;;;15.07;6.53;;;;;;;;;;6317425;22;20188;-88
2022/03/20 16:18:55;;;;;;;12.98;6.30;;;;;;;;;;6320296;22;20620;-88
2022/03/20 16:22:00;;;;;;;15.45;7.00;;;;;;;;;;6302195;22;20177;-87
2022/03/20 16:28:32;;;;;;;12.90;6.05;;;;;;;;;;6318224;22;20497;-87
2022/03/20 16:31:38;;;;;;;14.18;6.68;;;;;;;;;;6303826;22;20620;-88
2022/03/20 16:34:45;;;;;;;16.67;7.07;;;;;;;;;;6302531;22;20790;-88
2022/03/20 16:37:50;;;;;;;13.00;6.38;;;;;;;;;;6321191;22;20173;-89
2022/03/20 16:40:55;;;;;;;13.63;6.22;;;;;;;;;;6321717;22;20166;-88
2022/03/20 16:44:01;;;;;;;12.02;6.35;;;;;;;;;;6321268;22;20224;-86
2022/03/20 16:47:08;;;;;;;14.85;6.85;;;;;;;;;;6302744;22;20286;-88
2022/03/20 16:50:13;;;;;;;12.90;6.63;;;;;;;;;;6321142;22;20169;-88
2022/03/20 16:53:18;;;;;;;13.70;6.18;;;;;;;;;;6323054;22;20173;-88
2022/03/20 16:56:23;;;;;;;19.77;7.93;;;;;;;;;;6303230;22;20192;-87
2022/03/20 16:59:31;;;;;;;15.65;7.32;;;;;;;;;;6303172;22;20239;-87
2022/03/20 17:02:38;;;;;;;15.43;6.43;;;;;;;;;;6302583;22;20165;-87
2022/03/20 17:05:44;;;;;;;15.15;6.82;;;;;;;;;;6321736;22;20238;-87
2022/03/20 17:08:49;;;;;;;18.25;6.35;;;;;;;;;;6321062;22;20207;-90
2022/03/20 17:11:54;;;;;;;14.20;6.70;;;;;;;;;;6320023;22;20161;-87
2022/03/20 17:15:00;;;;;;;14.40;6.82;;;;;;;;;;6319106;22;20192;-87
2022/03/20 17:18:07;;;;;;;14.75;6.22;;;;;;;;;;6320037;22;20539;-88
2022/03/20 17:21:12;;;;;;;12.02;6.07;;;;;;;;;;6319384;22;20177;-87
2022/03/20 17:24:18;;;;;;;17.20;6.70;;;;;;;;;;6320406;22;20628;-88
2022/03/20 17:27:24;;;;;;;12.45;6.07;;;;;;;;;;6303246;22;20173;-86
2022/03/20 17:30:29;;;;;;;12.95;6.35;;;;;;;;;;6319741;22;20172;-87
2022/03/20 17:33:37;;;;;;;14.77;6.35;;;;;;;;;;6320465;22;20173;-87
2022/03/20 17:36:41;;;;;;;23.10;7.38;;;;;;;;;;6300425;22;20176;-89
2022/03/20 17:39:46;;;;;;;13.63;6.68;;;;;;;;;;6299135;22;20279;-85
2022/03/20 17:42:58;;;;;;;15.10;6.80;;;;;;;;;;6317683;22;20157;-88
2022/03/20 17:46:03;;;;;;;12.52;6.05;;;;;;;;;;6301737;22;20196;-89
2022/03/20 17:49:10;;;;;;;14.52;6.18;;;;;;;;;;6305598;22;20247;-88
2022/03/20 17:52:16;;;;;;;20.52;7.85;;;;;;;;;;6321416;22;20165;-88
2022/03/20 17:55:21;;;;;;;15.90;6.70;;;;;;;;;;6303002;22;20219;-88
2022/03/20 17:58:27;;;;;;;17.70;6.40;;;;;;;;;;6305157;22;20165;-88
2022/03/20 18:01:32;;;;;;;15.63;7.07;;;;;;;;;;6319598;22;20164;-88
2022/03/20 18:08:03;;;;;;;13.20;6.45;;;;;;;;;;6321113;22;20616;-88
2022/03/20 18:11:09;;;;;;;14.90;6.75;;;;;;;;;;6321003;22;20205;-87
2022/03/20 18:14:14;;;;;;;15.85;7.57;;;;;;;;;;6318544;22;20153;-86
2022/03/20 18:17:50;;;;;;;14.50;6.65;;;;;;;;;;6317492;22;20204;-88
2022/03/20 18:20:57;;;;;;;15.32;6.75;;;;;;;;;;6317616;22;20165;-87
2022/03/20 18:24:02;;;;;;;12.02;6.20;;;;;;;;;;6317412;22;20169;-89
2022/03/20 18:27:08;;;;;;;16.58;6.50;;;;;;;;;;6317752;22;20348;-88
2022/03/20 18:30:14;;;;;;;16.85;6.57;;;;;;;;;;6297838;22;20165;-86
2022/03/20 18:33:18;;;;;;;16.73;6.83;;;;;;;;;;6299229;22;20170;-88
2022/03/20 18:36:25;;;;;;;14.90;7.00;;;;;;;;;;6302357;22;20196;-86
2022/03/20 18:39:31;;;;;;;13.43;6.30;;;;;;;;;;6317279;22;20801;-87
2022/03/20 18:42:36;;;;;;;13.63;7.10;;;;;;;;;;6316812;22;20245;-88
2022/03/20 18:45:43;;;;;;;13.17;6.53;;;;;;;;;;6299014;22;20168;-88
2022/03/20 18:48:48;;;;;;;15.80;6.30;;;;;;;;;;6319469;22;20157;-88
2022/03/20 18:51:55;;;;;;;13.20;6.50;;;;;;;;;;6318169;22;20177;-89
2022/03/20 18:55:01;;;;;;;21.57;10.03;;;;;;;;;;6316871;22;20240;-88
2022/03/20 18:58:07;;;;;;;15.37;6.97;;;;;;;;;;6301969;22;20225;-88
2022/03/20 19:01:14;;;;;;;15.80;7.07;;;;;;;;;;6320956;22;20161;-88
2022/03/20 19:04:19;;;;;;;15.80;6.83;;;;;;;;;;6298050;22;20161;-88